Athol, South Dakota
Current Conditions -  °F | °C
As of 4:53 AM on Saturday 25 Oct 2014 (Local Time) from KABR Reporting Station
Clear Clear  
Wind Chill: 52°   Ceiling: Unl
Heat Index: 52°   Visibility: 10mi
Dew Point: 35°   Wind: 7mph
Humidity: 53%   Direction: 340°NNW
Pressure: 30.09"   Gusts: NA
Location:  45.027°N, 98.472°W
Report Text: KABR 250953Z AUTO 34006KT 10SM CLR 11/02 A3009 RMK AO2 SLP185 T01110017
Loading
Personal Weather Stations






























Interactive Weather Map
Tropical Storm Tracking
New forecast layout! Learn more

10-Day Weather Forecast

Advertisements
Track Severe Weather on mobile